• Join FlightAware (Why Join?)
  • Login
  • US Flag 
10:51AM EDT


 

Airport Tracker/Info


-or-


 

Live Flight TrackerFlight Track Log ✈ N6239Y ✈ 09-Jun-2013 ✈ KPCW - KZZV

Flight Track Log - Related Links

Times and Time Zones

All times are in EDT time to prevent confusion due to time zone crossing. See the N6239Y flight status page for this flight to view local times or setup timezone preferences in your user account.

Time Position Orientation Groundspeed Altitude Reporting Facility
EDT Latitude Longitude Course Direction KTS MPH feet Rate Location/Type
02:11PM 41.4478 -82.8464 152° Southeast 110 127 2,800  Level Cleveland Center
02:12PM 41.4394 -82.8406 152° Southeast 103 119 2,900 420 Climbing Cleveland Center
02:14PM 41.3775 -82.7756 142° Southeast 111 128 4,100 420 Climbing Indianapolis Center
02:15PM 41.3461 -82.7578 157° South 116 133 4,500 420 Climbing Indianapolis Center
02:16PM 41.3153 -82.7389 155° Southeast 119 137 5,000 480 Climbing Indianapolis Center
02:17PM 41.2856 -82.7200 154° Southeast 119 137 5,500 420 Climbing Indianapolis Center
02:18PM 41.2536 -82.7008 156° South 122 140 5,900 420 Climbing Indianapolis Center
02:19PM 41.2222 -82.6806 154° Southeast 123 142 6,400 420 Climbing Indianapolis Center
02:20PM 41.1917 -82.6611 154° Southeast 122 140 6,800 300 Climbing Indianapolis Center
02:22PM 41.1600 -82.6406 154° Southeast 124 143 7,100 120 Climbing Indianapolis Center
02:23PM 41.1250 -82.6183 154° Southeast 134 154 7,100  Level Indianapolis Center
02:24PM 41.0806 -82.5900 154° Southeast 148 170 7,100  Level Indianapolis Center
02:25PM 41.0433 -82.5664 154° Southeast 148 170 7,100  Level Indianapolis Center
02:26PM 41.0064 -82.5436 155° Southeast 145 167 7,100  Level Indianapolis Center
02:27PM 40.9692 -82.5181 153° Southeast 149 171 7,100  Level Indianapolis Center
02:28PM 40.9311 -82.4944 155° Southeast 149 171 7,100  Level Indianapolis Center
02:29PM 40.8928 -82.4728 157° South 148 170 7,100  Level Indianapolis Center
02:30PM 40.8558 -82.4475 153° Southeast 148 170 7,100  Level Indianapolis Center
02:31PM 40.8172 -82.4233 155° Southeast 151 174 7,100 -60 Level Indianapolis Center
02:32PM 40.7742 -82.3983 156° South 146 168 7,000 -60 Descending Indianapolis Center
02:33PM 40.7372 -82.3753 155° Southeast 146 168 7,000  Level Indianapolis Center
02:34PM 40.6997 -82.3528 156° South 146 168 7,000  Level Indianapolis Center
02:35PM 40.6614 -82.3283 154° Southeast 150 173 7,000  Level Indianapolis Center
02:36PM 40.6242 -82.3056 155° Southeast 148 170 7,000  Level Indianapolis Center
02:37PM 40.5867 -82.2819 154° Southeast 148 170 7,000  Level Indianapolis Center
02:38PM 40.5489 -82.2594 156° South 149 171 7,000  Level Indianapolis Center
02:39PM 40.5114 -82.2364 155° Southeast 147 169 7,000  Level Indianapolis Center
02:40PM 40.4700 -82.2117 156° South 140 161 7,000 -240 Level Indianapolis Center
02:41PM 40.4319 -82.1886 155° Southeast 146 168 6,600 -420 Descending Indianapolis Center
02:42PM 40.3903 -82.1606 153° Southeast 161 185 6,200 -420 Descending Indianapolis Center
02:43PM 40.3481 -82.1367 157° South 163 188 5,800 -480 Descending Indianapolis Center
02:44PM 40.3092 -82.1150 157° South 155 178 5,300 -540 Descending Indianapolis Center
02:45PM 40.2700 -82.0908 155° Southeast 153 176 4,700 -540 Descending Indianapolis Center
02:46PM 40.2278 -82.0636 154° Southeast 160 184 4,200 -540 Descending Indianapolis Center